createdAt,value
2022-08-05T00:00:46.431Z,21.01
2022-08-05T00:06:05.409Z,20.90
2022-08-05T00:11:20.646Z,20.89
2022-08-05T00:16:35.506Z,20.87
2022-08-05T00:21:38.052Z,20.78
2022-08-05T00:26:39.454Z,20.66
2022-08-05T00:32:10.963Z,20.67
2022-08-05T00:37:14.385Z,20.67
2022-08-05T00:42:31.699Z,20.67
2022-08-05T00:47:56.553Z,20.62
2022-08-05T00:52:55.497Z,20.61
2022-08-05T00:57:59.110Z,20.47
2022-08-05T01:03:01.001Z,20.43
2022-08-05T01:08:40.963Z,20.43
2022-08-05T01:13:57.795Z,20.36
2022-08-05T01:18:58.037Z,20.26
2022-08-05T01:24:22.233Z,20.19
2022-08-05T01:29:36.444Z,20.16
2022-08-05T01:34:45.691Z,20.20
2022-08-05T01:39:48.579Z,20.09
2022-08-05T01:44:54.379Z,19.99
2022-08-05T01:50:02.122Z,20.12
2022-08-05T01:55:07.105Z,20.11
2022-08-05T02:00:11.919Z,20.08
2022-08-05T02:05:14.597Z,20.03
2022-08-05T02:10:17.511Z,20.12
2022-08-05T02:15:26.417Z,20.04
2022-08-05T02:20:44.047Z,20.06
2022-08-05T02:25:50.561Z,19.93
2022-08-05T02:30:56.651Z,19.98
2022-08-05T02:36:01.113Z,20.13
2022-08-05T02:41:06.342Z,20.11
2022-08-05T02:46:16.989Z,20.03
2022-08-05T02:52:03.735Z,19.89
2022-08-05T02:56:51.394Z,19.69
2022-08-05T03:01:58.093Z,19.55
2022-08-05T03:07:00.479Z,19.22
2022-08-05T03:12:01.957Z,18.97
2022-08-05T03:17:07.343Z,18.86
2022-08-05T03:22:16.596Z,18.80
2022-08-05T03:27:20.049Z,18.68
2022-08-05T03:32:21.785Z,18.68
2022-08-05T03:37:41.009Z,18.65
2022-08-05T03:42:52.244Z,18.54
2022-08-05T03:47:56.825Z,18.57
2022-08-05T03:55:49.953Z,18.50
2022-08-05T03:58:33.269Z,18.49
2022-08-05T04:03:38.034Z,18.45
2022-08-05T04:08:39.865Z,18.45
2022-08-05T04:13:50.305Z,18.40
2022-08-05T04:18:53.900Z,18.35
2022-08-05T04:24:05.875Z,18.33
2022-08-05T04:29:08.285Z,18.25
2022-08-05T04:34:18.526Z,18.27
2022-08-05T04:39:33.457Z,18.26
2022-08-05T04:44:36.993Z,18.25
2022-08-05T04:50:01.369Z,18.33
2022-08-05T04:55:14.548Z,18.34
2022-08-05T05:00:16.869Z,18.43
2022-08-05T05:05:28.466Z,18.47
2022-08-05T05:10:33.399Z,18.33
2022-08-05T05:15:57.607Z,18.32
2022-08-05T05:20:56.480Z,18.26
2022-08-05T05:25:59.947Z,18.32
2022-08-05T05:31:02.037Z,18.28
2022-08-05T05:36:07.231Z,18.37
2022-08-05T05:41:08.583Z,18.47
2022-08-05T05:46:17.736Z,18.61
2022-08-05T05:51:21.047Z,18.70
2022-08-05T05:56:26.127Z,18.71
2022-08-05T06:01:39.376Z,18.71
2022-08-05T06:06:42.787Z,18.89
2022-08-05T06:12:01.401Z,19.14
2022-08-05T06:17:53.093Z,19.37
2022-08-05T06:22:27.977Z,19.75
2022-08-05T06:28:11.134Z,19.97
2022-08-05T06:32:50.968Z,20.07
2022-08-05T06:37:56.138Z,20.16
2022-08-05T06:42:59.804Z,20.66
2022-08-05T06:48:44.248Z,20.81
2022-08-05T06:53:28.610Z,20.71
2022-08-05T06:58:36.286Z,20.87
2022-08-05T07:03:38.146Z,21.33
2022-08-05T07:08:39.765Z,21.35
2022-08-05T07:14:02.385Z,21.59
2022-08-05T07:19:04.209Z,21.63
2022-08-05T07:24:05.808Z,21.14
2022-08-05T07:29:12.870Z,20.79
2022-08-05T07:34:14.243Z,20.36
2022-08-05T07:39:24.826Z,20.71
2022-08-05T07:44:43.962Z,20.95
2022-08-05T07:49:54.647Z,21.03
2022-08-05T07:54:56.206Z,21.07
2022-08-05T07:59:57.556Z,21.02
2022-08-05T08:04:59.128Z,20.67
2022-08-05T08:10:01.067Z,20.65
2022-08-05T08:15:03.696Z,20.82
2022-08-05T08:20:43.360Z,21.06
2022-08-05T08:26:00.123Z,21.44
2022-08-05T08:30:52.504Z,21.56
2022-08-05T08:36:07.798Z,21.34
2022-08-05T08:41:15.725Z,21.07
2022-08-05T08:46:20.021Z,21.27
2022-08-05T08:52:02.981Z,21.92
2022-08-05T08:56:47.748Z,22.39
2022-08-05T09:01:57.425Z,22.99
2022-08-05T09:07:02.400Z,22.07
2022-08-05T09:12:20.458Z,21.63
2022-08-05T09:17:42.498Z,22.01
2022-08-05T09:23:05.321Z,22.11
2022-08-05T09:28:13.124Z,21.87
2022-08-05T09:33:15.289Z,22.37
2022-08-05T09:38:27.254Z,23.74
2022-08-05T09:43:41.104Z,23.47
2022-08-05T09:48:43.373Z,23.77
2022-08-05T09:54:08.381Z,23.22
2022-08-05T09:59:17.133Z,23.27
2022-08-05T10:04:18.831Z,22.77
2022-08-05T10:09:30.628Z,22.08
2022-08-05T10:14:46.527Z,22.29
2022-08-05T10:20:04.097Z,22.35
2022-08-05T10:25:10.722Z,23.04
2022-08-05T10:32:49.145Z,24.23
2022-08-05T10:35:40.601Z,24.22
2022-08-05T10:40:58.164Z,22.82
2022-08-05T10:46:06.799Z,21.58
2022-08-05T10:51:21.671Z,21.11
2022-08-05T10:56:28.368Z,20.62
2022-08-05T11:01:55.496Z,20.18
2022-08-05T11:06:58.309Z,20.08
2022-08-05T11:11:59.783Z,20.32
2022-08-05T11:17:58.122Z,19.61
2022-08-05T11:22:42.590Z,19.33
2022-08-05T11:27:51.059Z,19.14
2022-08-05T11:33:20.926Z,18.99
2022-08-05T11:38:45.364Z,19.21
2022-08-05T11:44:06.252Z,19.33
2022-08-05T11:49:13.350Z,19.47
2022-08-05T11:54:24.407Z,19.49
2022-08-05T11:59:49.763Z,19.40
2022-08-05T12:04:59.297Z,19.48
2022-08-05T12:10:09.203Z,19.42
2022-08-05T12:15:20.043Z,20.07
2022-08-05T12:20:39.493Z,20.12
2022-08-05T12:26:09.052Z,20.13
2022-08-05T12:31:10.764Z,19.99
2022-08-05T12:36:24.940Z,20.86
2022-08-05T12:41:34.222Z,22.23
2022-08-05T12:46:37.160Z,22.15
2022-08-05T12:52:11.158Z,22.19
2022-08-05T12:57:09.749Z,22.30
2022-08-05T13:02:12.466Z,22.56
2022-08-05T13:07:17.277Z,21.95
2022-08-05T13:12:19.766Z,21.57
2022-08-05T13:17:31.906Z,21.37
2022-08-05T13:22:43.621Z,22.74
2022-08-05T13:27:50.197Z,23.51
2022-08-05T13:32:52.373Z,23.38
2022-08-05T13:37:57.815Z,23.18
2022-08-05T13:43:06.460Z,23.84
2022-08-05T13:48:58.582Z,24.26
2022-08-05T13:53:35.203Z,24.62
2022-08-05T13:58:52.832Z,24.62
2022-08-05T14:04:13.644Z,23.51
2022-08-05T14:09:16.197Z,23.03
2022-08-05T14:14:25.470Z,23.03
2022-08-05T14:19:27.501Z,23.48
2022-08-05T14:24:30.545Z,23.71
2022-08-05T14:29:32.670Z,23.84
2022-08-05T14:34:35.759Z,24.03
2022-08-05T14:39:49.384Z,24.26
2022-08-05T14:44:52.102Z,24.00
2022-08-05T14:49:56.354Z,23.30
2022-08-05T14:55:02.123Z,23.37
2022-08-05T15:00:03.897Z,23.60
2022-08-05T15:05:13.188Z,23.64
2022-08-05T15:10:15.024Z,23.78
2022-08-05T15:15:16.764Z,23.66
2022-08-05T15:20:38.841Z,24.03
2022-08-05T15:25:51.441Z,23.49
2022-08-05T15:30:55.311Z,22.98
2022-08-05T15:35:56.662Z,23.35
2022-08-05T15:41:20.836Z,23.28
2022-08-05T15:46:20.583Z,23.12
2022-08-05T15:52:09.823Z,23.06
2022-08-05T15:56:47.753Z,22.84
2022-08-05T16:01:53.110Z,23.20
2022-08-05T16:06:55.769Z,22.84
2022-08-05T16:11:57.651Z,22.54
2022-08-05T16:16:59.299Z,22.77
2022-08-05T16:22:03.350Z,22.85
2022-08-05T16:27:07.228Z,22.81
2022-08-05T16:32:09.715Z,22.29
2022-08-05T16:38:02.037Z,22.08
2022-08-05T16:42:33.287Z,21.82
2022-08-05T16:47:36.170Z,22.05
2022-08-05T16:52:46.095Z,22.07
2022-08-05T16:57:59.951Z,22.28
2022-08-05T17:03:15.233Z,22.04
2022-08-05T17:08:36.569Z,22.11
2022-08-05T17:13:43.778Z,22.09
2022-08-05T17:18:45.198Z,21.93
2022-08-05T17:24:05.137Z,22.03
2022-08-05T17:29:10.159Z,21.90
2022-08-05T17:34:11.687Z,21.71
2022-08-05T17:39:24.117Z,21.54
2022-08-05T17:44:32.543Z,21.38
2022-08-05T17:50:00.117Z,21.11
2022-08-05T17:54:55.394Z,21.06
2022-08-05T18:00:05.124Z,21.09
2022-08-05T18:05:08.106Z,20.98
2022-08-05T18:10:11.143Z,20.89
2022-08-05T18:15:12.863Z,20.82
2022-08-05T18:20:15.395Z,20.71
2022-08-05T18:25:17.503Z,20.57
2022-08-05T18:30:18.837Z,20.52
2022-08-05T18:35:20.980Z,20.50
2022-08-05T18:41:56.682Z,20.40
2022-08-05T18:46:04.345Z,20.18
2022-08-05T18:52:03.974Z,20.01
2022-08-05T18:56:51.064Z,19.85
2022-08-05T19:01:58.189Z,19.78
2022-08-05T19:07:00.010Z,19.90
2022-08-05T19:12:01.770Z,19.96
2022-08-05T19:17:03.260Z,19.94
2022-08-05T19:22:07.865Z,19.91
2022-08-05T19:27:11.461Z,19.90
2022-08-05T19:32:14.784Z,19.79
2022-08-05T19:37:17.140Z,19.63
2022-08-05T19:42:35.581Z,19.60
2022-08-05T19:47:38.013Z,19.48
2022-08-05T19:52:39.476Z,19.38
2022-08-05T19:57:49.355Z,19.27
2022-08-05T20:03:05.211Z,19.02
2022-08-05T20:08:10.259Z,18.86
2022-08-05T20:13:12.140Z,18.89
2022-08-05T20:18:33.649Z,18.77
2022-08-05T20:23:39.493Z,18.65
2022-08-05T20:28:55.948Z,18.63
2022-08-05T20:33:57.653Z,18.61
2022-08-05T20:38:59.225Z,18.54
2022-08-05T20:44:15.455Z,18.57
2022-08-05T20:49:24.523Z,18.51
2022-08-05T20:54:59.680Z,18.48
2022-08-05T21:00:19.873Z,18.38
2022-08-05T21:05:11.207Z,18.30
2022-08-05T21:10:13.732Z,18.11
2022-08-05T21:15:15.961Z,17.97
2022-08-05T21:20:33.425Z,17.73
2022-08-05T21:25:35.640Z,17.51
2022-08-05T21:30:37.996Z,17.33
2022-08-05T21:35:55.838Z,17.26
2022-08-05T21:40:59.979Z,17.26
2022-08-05T21:46:01.579Z,17.16
2022-08-05T21:51:25.345Z,17.11
2022-08-05T21:56:26.826Z,16.98
2022-08-05T22:01:28.232Z,16.91
2022-08-05T22:06:39.630Z,16.66
2022-08-05T22:11:41.337Z,16.44
2022-08-05T22:16:51.086Z,16.31
2022-08-05T22:21:54.364Z,16.15
2022-08-05T22:27:17.274Z,16.01
2022-08-05T22:32:18.984Z,15.91
2022-08-05T22:37:20.822Z,16.00
2022-08-05T22:42:26.150Z,15.81
2022-08-05T22:47:29.684Z,15.67
2022-08-05T22:52:34.405Z,15.46
2022-08-05T22:57:36.549Z,15.28
2022-08-05T23:02:40.044Z,15.32
2022-08-05T23:07:50.200Z,15.41
2022-08-05T23:12:55.151Z,15.54
2022-08-05T23:18:00.923Z,15.64
2022-08-05T23:23:08.039Z,15.63
2022-08-05T23:28:10.120Z,15.54
2022-08-05T23:33:15.949Z,15.30
2022-08-05T23:38:20.430Z,15.19
2022-08-05T23:43:25.138Z,14.95
2022-08-05T23:48:45.505Z,14.82
2022-08-05T23:54:02.609Z,14.74
2022-08-05T23:59:03.973Z,14.66
